Time,TemperatureF,DewpointF,PressureIn,WindDirection,WindDirectionDegrees,WindSpeedMPH,WindSpeedGustMPH,Humidity,HourlyPrecipIn,Conditions,Clouds,dailyrainin,SolarRadiationWatts/m^2,SoftwareType,DateUTC
2013-04-20 00:02:00,43.0,42.0,-100.00,ENE,73,0.0,0.0,95,0.00,,,0.69,0.000000,,2013-04-20 05:02:00,
2013-04-20 00:12:00,43.0,42.0,-100.00,ENE,73,0.0,0.0,95,0.00,,,0.69,0.000000,,2013-04-20 05:12:00,
2013-04-20 00:22:00,43.0,42.0,-100.00,ENE,73,0.0,0.0,95,0.00,,,0.69,0.000000,,2013-04-20 05:22:00,
2013-04-20 00:52:00,42.0,41.0,-100.00,NNW,342,0.0,2.0,96,0.00,,,0.69,0.000000,,2013-04-20 05:52:00,
2013-04-20 01:02:00,42.0,41.0,-100.00,NNW,342,0.0,2.0,96,0.00,,,0.69,0.000000,,2013-04-20 06:02:00,
2013-04-20 01:12:00,42.0,41.0,-100.00,NNW,342,0.0,2.0,96,0.00,,,0.69,0.000000,,2013-04-20 06:12:00,
2013-04-20 01:21:00,42.0,41.0,-100.00,NNW,342,0.0,2.0,96,0.00,,,0.69,0.000000,,2013-04-20 06:21:00,
2013-04-20 01:52:00,42.0,41.0,-100.00,West,261,0.0,2.0,96,0.00,,,-99.99,0.000000,,2013-04-20 06:52:00,
2013-04-20 02:01:00,42.0,41.0,-100.00,West,261,0.0,2.0,96,0.00,,,-99.99,0.000000,,2013-04-20 07:01:00,
2013-04-20 02:11:00,42.0,41.0,-100.00,West,261,0.0,2.0,96,0.00,,,-99.99,0.000000,,2013-04-20 07:11:00,
2013-04-20 02:21:00,42.0,41.0,-100.00,West,261,0.0,2.0,96,0.00,,,-99.99,0.000000,,2013-04-20 07:21:00,
2013-04-20 02:52:00,43.0,42.0,-100.00,NNE,29,1.0,4.0,96,0.00,,,0.69,0.000000,,2013-04-20 07:52:00,
2013-04-20 03:02:00,43.0,42.0,-100.00,NNE,29,1.0,4.0,96,0.00,,,0.69,0.000000,,2013-04-20 08:02:00,
2013-04-20 03:11:00,43.0,42.0,-100.00,NNE,29,1.0,4.0,96,0.00,,,0.69,0.000000,,2013-04-20 08:11:00,
2013-04-20 03:21:00,43.0,42.0,-100.00,NNE,29,1.0,4.0,96,0.00,,,0.69,0.000000,,2013-04-20 08:21:00,
2013-04-20 03:52:00,41.0,40.0,-100.00,NNE,24,0.0,3.0,96,0.00,,,0.69,0.000000,,2013-04-20 08:52:00,
2013-04-20 04:01:00,41.0,40.0,-100.00,NNE,24,0.0,3.0,96,0.00,,,0.69,0.000000,,2013-04-20 09:01:00,
2013-04-20 04:12:00,41.0,40.0,-100.00,NNE,24,0.0,3.0,96,0.00,,,0.69,0.000000,,2013-04-20 09:12:00,
2013-04-20 04:21:00,41.0,40.0,-100.00,NNE,24,0.0,3.0,96,0.00,,,0.69,0.000000,,2013-04-20 09:21:00,
2013-04-20 04:53:00,41.0,40.0,-100.00,NE,56,1.0,3.0,96,0.00,,,0.69,0.000000,,2013-04-20 09:53:00,
2013-04-20 05:03:00,41.0,40.0,-100.00,NE,56,1.0,3.0,96,0.00,,,0.69,0.000000,,2013-04-20 10:03:00,
2013-04-20 05:13:00,41.0,40.0,-100.00,NE,56,1.0,3.0,96,0.00,,,0.69,0.000000,,2013-04-20 10:13:00,
2013-04-20 05:23:00,41.0,40.0,-100.00,NE,56,1.0,3.0,96,0.00,,,0.69,0.000000,,2013-04-20 10:23:00,
2013-04-20 05:53:00,41.0,40.0,-100.00,NNE,25,1.0,4.0,96,0.00,,,0.62,0.000000,,2013-04-20 10:53:00,
2013-04-20 06:02:00,41.0,40.0,-100.00,NNE,25,1.0,4.0,96,0.00,,,0.62,0.000000,,2013-04-20 11:02:00,
2013-04-20 06:12:00,41.0,40.0,-100.00,NNE,25,1.0,4.0,96,0.00,,,0.62,0.000000,,2013-04-20 11:12:00,
2013-04-20 06:23:00,41.0,40.0,-100.00,NNE,25,1.0,4.0,96,0.00,,,0.62,0.000000,,2013-04-20 11:23:00,
2013-04-20 06:53:00,39.0,38.0,-100.00,South,172,0.0,3.0,95,0.01,,,0.61,0.000000,,2013-04-20 11:53:00,
2013-04-20 07:02:00,39.0,38.0,-100.00,South,172,0.0,3.0,95,0.01,,,0.61,0.000000,,2013-04-20 12:02:00,
2013-04-20 07:11:00,39.0,38.0,-100.00,South,172,0.0,3.0,95,0.01,,,0.61,0.000000,,2013-04-20 12:11:00,
2013-04-20 07:22:00,39.0,38.0,-100.00,South,172,0.0,3.0,95,0.01,,,0.61,0.000000,,2013-04-20 12:22:00,
2013-04-20 07:52:00,46.0,45.0,-100.00,NE,35,0.0,2.0,95,0.00,,,0.60,93.000000,,2013-04-20 12:52:00,
2013-04-20 08:02:00,46.0,45.0,-100.00,NE,35,0.0,2.0,95,0.00,,,0.60,93.000000,,2013-04-20 13:02:00,
2013-04-20 08:11:00,46.0,45.0,-100.00,NE,35,0.0,2.0,95,0.00,,,0.60,93.000000,,2013-04-20 13:11:00,
2013-04-20 08:21:00,46.0,45.0,-100.00,NE,35,0.0,2.0,95,0.00,,,0.60,93.000000,,2013-04-20 13:21:00,
2013-04-20 08:52:00,51.0,43.0,-100.00,NE,43,4.0,7.0,74,0.00,,,0.49,342.000000,,2013-04-20 13:52:00,
2013-04-20 09:02:00,51.0,43.0,-100.00,NE,43,4.0,7.0,74,0.00,,,0.49,342.000000,,2013-04-20 14:02:00,
2013-04-20 09:11:00,51.0,43.0,-100.00,NE,43,4.0,7.0,74,0.00,,,0.49,342.000000,,2013-04-20 14:11:00,
2013-04-20 09:21:00,51.0,43.0,-100.00,NE,43,4.0,7.0,74,0.00,,,0.49,342.000000,,2013-04-20 14:21:00,
2013-04-20 09:52:00,56.0,40.0,-100.00,NE,41,7.0,13.0,54,0.00,,,0.13,593.000000,,2013-04-20 14:52:00,
2013-04-20 10:01:00,56.0,40.0,-100.00,NE,41,7.0,13.0,54,0.00,,,0.13,593.000000,,2013-04-20 15:01:00,
2013-04-20 10:11:00,56.0,40.0,-100.00,NE,41,7.0,13.0,54,0.00,,,0.13,593.000000,,2013-04-20 15:11:00,
2013-04-20 10:21:00,56.0,40.0,-100.00,NE,41,7.0,13.0,54,0.00,,,0.13,593.000000,,2013-04-20 15:21:00,
2013-04-20 10:53:00,59.0,35.0,-100.00,NE,38,9.0,17.0,41,0.00,,,0.13,832.000000,,2013-04-20 15:53:00,
2013-04-20 11:03:00,59.0,35.0,-100.00,NE,38,9.0,17.0,41,0.00,,,0.13,832.000000,,2013-04-20 16:03:00,
2013-04-20 11:12:00,59.0,35.0,-100.00,NE,38,9.0,17.0,41,0.00,,,0.13,832.000000,,2013-04-20 16:12:00,
2013-04-20 11:23:00,59.0,35.0,-100.00,NE,38,9.0,17.0,41,0.00,,,0.13,832.000000,,2013-04-20 16:23:00,
2013-04-20 11:53:00,62.0,36.0,-100.00,NNE,28,6.0,14.0,38,0.00,,,0.13,1008.000000,,2013-04-20 16:53:00,
2013-04-20 12:02:00,62.0,36.0,-100.00,NNE,28,6.0,14.0,38,0.00,,,0.13,1008.000000,,2013-04-20 17:02:00,
2013-04-20 12:12:00,62.0,36.0,-100.00,NNE,28,6.0,14.0,38,0.00,,,0.13,1008.000000,,2013-04-20 17:12:00,
2013-04-20 12:23:00,62.0,36.0,-100.00,NNE,28,6.0,14.0,38,0.00,,,0.13,1008.000000,,2013-04-20 17:23:00,
2013-04-20 12:52:00,64.0,36.0,-100.00,ENE,58,7.0,15.0,35,0.00,,,0.13,1117.000000,,2013-04-20 17:52:00,
2013-04-20 13:02:00,64.0,36.0,-100.00,ENE,58,7.0,15.0,35,0.00,,,0.13,1117.000000,,2013-04-20 18:02:00,
2013-04-20 13:12:00,64.0,36.0,-100.00,ENE,58,7.0,15.0,35,0.00,,,0.13,1117.000000,,2013-04-20 18:12:00,
2013-04-20 13:22:00,64.0,36.0,-100.00,ENE,58,7.0,15.0,35,0.00,,,0.13,1117.000000,,2013-04-20 18:22:00,
2013-04-20 14:52:00,67.0,34.0,-100.00,NNE,17,7.0,14.0,29,-99.99,,,0.09,1107.000000,,2013-04-20 19:52:00,
2013-04-20 15:02:00,67.0,34.0,-100.00,NNE,17,7.0,14.0,29,-99.99,,,0.09,1107.000000,,2013-04-20 20:02:00,
2013-04-20 15:12:00,67.0,34.0,-100.00,NNE,17,7.0,14.0,29,-99.99,,,0.09,1107.000000,,2013-04-20 20:12:00,
2013-04-20 15:21:00,67.0,34.0,-100.00,NNE,17,7.0,14.0,29,-99.99,,,0.09,1107.000000,,2013-04-20 20:21:00,
2013-04-20 15:52:00,69.0,36.0,-100.00,North,8,6.0,13.0,30,0.00,,,0.05,985.000000,,2013-04-20 20:52:00,
2013-04-20 16:01:00,69.0,36.0,-100.00,North,8,6.0,13.0,30,0.00,,,0.05,985.000000,,2013-04-20 21:01:00,
2013-04-20 16:12:00,69.0,36.0,-100.00,North,8,6.0,13.0,30,0.00,,,0.05,985.000000,,2013-04-20 21:12:00,
2013-04-20 16:22:00,69.0,36.0,-100.00,North,8,6.0,13.0,30,0.00,,,0.05,985.000000,,2013-04-20 21:22:00,
2013-04-20 16:53:00,70.0,38.0,-100.00,North,353,7.0,15.0,31,0.00,,,0.03,797.000000,,2013-04-20 21:53:00,
2013-04-20 17:02:00,70.0,38.0,-100.00,North,353,7.0,15.0,31,0.00,,,0.03,797.000000,,2013-04-20 22:02:00,
2013-04-20 17:12:00,70.0,38.0,-100.00,North,353,7.0,15.0,31,0.00,,,0.03,797.000000,,2013-04-20 22:12:00,
2013-04-20 17:22:00,70.0,38.0,-100.00,North,353,7.0,15.0,31,0.00,,,0.03,797.000000,,2013-04-20 22:22:00,
2013-04-20 17:53:00,70.0,35.0,-100.00,NNE,19,6.0,12.0,28,0.00,,,0.01,560.000000,,2013-04-20 22:53:00,
2013-04-20 18:02:00,70.0,35.0,-100.00,NNE,19,6.0,12.0,28,0.00,,,0.01,560.000000,,2013-04-20 23:02:00,
2013-04-20 18:11:00,70.0,35.0,-100.00,NNE,19,6.0,12.0,28,0.00,,,0.01,560.000000,,2013-04-20 23:11:00,
2013-04-20 18:22:00,70.0,35.0,-100.00,NNE,19,6.0,12.0,28,0.00,,,0.01,560.000000,,2013-04-20 23:22:00,
2013-04-20 18:53:00,68.0,38.0,-100.00,NE,49,4.0,11.0,33,0.00,,,0.01,296.000000,,2013-04-20 23:53:00,
2013-04-20 19:01:00,68.0,38.0,-100.00,NE,49,4.0,11.0,33,0.00,,,0.01,296.000000,,2013-04-21 00:01:00,
2013-04-20 19:11:00,68.0,38.0,-100.00,NE,49,4.0,11.0,33,0.00,,,0.01,296.000000,,2013-04-21 00:11:00,
2013-04-20 19:22:00,68.0,38.0,-100.00,NE,49,4.0,11.0,33,0.00,,,0.01,296.000000,,2013-04-21 00:22:00,
2013-04-20 19:52:00,61.0,42.0,-100.00,ESE,104,0.0,9.0,50,0.00,,,0.01,60.000000,,2013-04-21 00:52:00,
2013-04-20 20:01:00,61.0,42.0,-100.00,ESE,104,0.0,9.0,50,0.00,,,0.01,60.000000,,2013-04-21 01:01:00,
2013-04-20 20:12:00,61.0,42.0,-100.00,ESE,104,0.0,9.0,50,0.00,,,0.01,60.000000,,2013-04-21 01:12:00,
2013-04-20 20:21:00,61.0,42.0,-100.00,ESE,104,0.0,9.0,50,0.00,,,0.01,60.000000,,2013-04-21 01:21:00,
2013-04-20 20:52:00,54.0,49.0,-100.00,North,4,0.0,2.0,82,0.00,,,0.01,1.000000,,2013-04-21 01:52:00,
2013-04-20 21:02:00,54.0,49.0,-100.00,North,4,0.0,2.0,82,0.00,,,0.01,1.000000,,2013-04-21 02:02:00,
2013-04-20 21:11:00,54.0,49.0,-100.00,North,4,0.0,2.0,82,0.00,,,0.01,1.000000,,2013-04-21 02:11:00,
2013-04-20 21:21:00,54.0,49.0,-100.00,North,4,0.0,2.0,82,0.00,,,0.01,1.000000,,2013-04-21 02:21:00,
2013-04-20 21:52:00,50.0,48.0,-100.00,NE,43,0.0,0.0,92,0.00,,,0.01,0.000000,,2013-04-21 02:52:00,
2013-04-20 22:01:00,50.0,48.0,-100.00,NE,43,0.0,0.0,92,0.00,,,0.01,0.000000,,2013-04-21 03:01:00,
2013-04-20 22:11:00,50.0,48.0,-100.00,NE,43,0.0,0.0,92,0.00,,,0.01,0.000000,,2013-04-21 03:11:00,
2013-04-20 22:21:00,50.0,48.0,-100.00,NE,43,0.0,0.0,92,0.00,,,0.01,0.000000,,2013-04-21 03:21:00,
2013-04-20 22:52:00,48.0,46.0,-100.00,North,358,0.0,0.0,94,0.00,,,0.01,0.000000,,2013-04-21 03:52:00,
2013-04-20 23:02:00,48.0,46.0,-100.00,North,358,0.0,0.0,94,0.00,,,0.01,0.000000,,2013-04-21 04:02:00,
2013-04-20 23:12:00,48.0,46.0,-100.00,North,358,0.0,0.0,94,0.00,,,0.01,0.000000,,2013-04-21 04:12:00,
2013-04-20 23:23:00,48.0,46.0,-100.00,North,358,0.0,0.0,94,0.00,,,0.01,0.000000,,2013-04-21 04:23:00,
2013-04-20 23:53:00,47.0,45.0,-100.00,North,354,0.0,2.0,94,0.00,,,0.01,0.000000,,2013-04-21 04:53:00,